Time;durP1;ratioP1;P1;durP2;ratioP2;P2;SDS_P1;SDS_P2;PMS_P1;PMS_P2;Temp;Humidity;BMP_temperature;BMP_pressure;BME280_temperature;BME280_humidity;BME280_pressure;Samples;Min_cycle;Max_cycle;Signal;HPM_P1;HPM_P2
2022/08/01 00:01:40;;;;;;;4.75;3.35;;;19.60;99.90;;;;;;4816660;29;38304;-80
2022/08/01 00:04:06;;;;;;;4.05;2.83;;;19.60;99.90;;;;;;4818475;29;38112;-80
2022/08/01 00:06:32;;;;;;;3.40;3.10;;;19.60;99.90;;;;;;4814873;29;36436;-79
2022/08/01 00:08:59;;;;;;;5.25;3.80;;;19.60;99.90;;;;;;4829645;29;37791;-80
2022/08/01 00:11:25;;;;;;;5.15;2.92;;;19.60;99.90;;;;;;4823919;29;38433;-79
2022/08/01 00:13:51;;;;;;;4.10;2.90;;;19.60;99.90;;;;;;4836772;29;38216;-80
2022/08/01 00:16:18;;;;;;;4.53;2.92;;;19.50;99.90;;;;;;4832073;29;37305;-80
2022/08/01 00:18:44;;;;;;;4.25;2.83;;;19.60;99.90;;;;;;4813105;29;42176;-80
2022/08/01 00:21:10;;;;;;;3.67;2.58;;;19.60;99.90;;;;;;4827274;29;38992;-80
2022/08/01 00:23:37;;;;;;;3.95;2.58;;;19.60;99.90;;;;;;4811158;29;38207;-80
2022/08/01 00:26:03;;;;;;;3.03;2.28;;;19.60;99.90;;;;;;4830859;29;37080;-80
2022/08/01 00:28:29;;;;;;;3.85;2.65;;;19.60;99.90;;;;;;4818488;29;37546;-79
2022/08/01 00:30:55;;;;;;;4.22;2.67;;;19.60;99.90;;;;;;4843087;29;40042;-81
2022/08/01 00:33:21;;;;;;;5.38;2.65;;;19.70;99.90;;;;;;4856105;29;38342;-78
2022/08/01 00:35:47;;;;;;;4.28;2.83;;;19.60;99.90;;;;;;4843510;29;36659;-80
2022/08/01 00:38:13;;;;;;;3.20;2.75;;;19.70;99.90;;;;;;4859169;29;38943;-81
2022/08/01 00:40:39;;;;;;;6.78;3.08;;;19.70;99.90;;;;;;4856716;29;39380;-80
2022/08/01 00:43:05;;;;;;;3.72;3.10;;;19.70;99.90;;;;;;4839965;29;37914;-81
2022/08/01 00:45:31;;;;;;;4.88;3.17;;;19.60;99.90;;;;;;4835259;29;36460;-80
2022/08/01 00:47:57;;;;;;;4.43;3.38;;;19.60;99.90;;;;;;4859359;29;39407;-80
2022/08/01 00:50:23;;;;;;;3.30;2.78;;;19.70;99.90;;;;;;4856874;29;39694;-80
2022/08/01 00:52:51;;;;;;;4.55;3.28;;;19.70;99.90;;;;;;4839554;29;38059;-80
2022/08/01 00:55:19;;;;;;;3.13;2.70;;;19.60;99.90;;;;;;4839214;29;36577;-80
2022/08/01 00:57:46;;;;;;;3.90;2.78;;;19.60;99.90;;;;;;4843963;29;38220;-81
2022/08/01 01:00:13;;;;;;;3.08;2.78;;;19.70;99.90;;;;;;4833113;29;37087;-81
2022/08/01 01:02:39;;;;;;;3.95;3.13;;;19.60;99.90;;;;;;4835905;29;40013;-80
2022/08/01 01:05:05;;;;;;;5.88;3.20;;;19.70;99.90;;;;;;4854530;29;38270;-80
2022/08/01 01:07:42;;;;;;;3.03;2.72;;;19.60;99.90;;;;;;4848816;29;37727;-81
2022/08/01 01:10:11;;;;;;;3.22;2.72;;;19.60;99.90;;;;;;4830017;29;37869;-80
2022/08/01 01:13:13;;;;;;;2.90;2.50;;;19.60;99.90;;;;;;4829855;29;38254;-81
2022/08/01 01:16:10;;;;;;;3.17;2.60;;;19.70;99.90;;;;;;4782852;29;47243;-81
2022/08/01 01:18:41;;;;;;;3.03;2.70;;;19.70;99.90;;;;;;4808858;29;46997;-81
2022/08/01 01:21:19;;;;;;;3.67;2.75;;;19.60;99.90;;;;;;4846159;29;40431;-81
2022/08/01 01:24:06;;;;;;;3.15;2.85;;;19.60;99.90;;;;;;4829858;29;37974;-81
2022/08/01 01:27:04;;;;;;;3.20;2.65;;;19.70;99.90;;;;;;4831306;29;47482;-80
2022/08/01 01:29:38;;;;;;;3.97;2.22;;;19.60;99.90;;;;;;4827117;29;48941;-81
2022/08/01 01:32:12;;;;;;;3.75;2.65;;;19.70;99.90;;;;;;4828451;29;38231;-79
2022/08/01 01:34:42;;;;;;;5.40;3.70;;;19.70;99.90;;;;;;4850358;29;38332;-81
2022/08/01 01:37:14;;;;;;;5.38;2.92;;;19.70;99.90;;;;;;4830671;29;36048;-80
2022/08/01 01:39:42;;;;;;;7.63;4.32;;;19.70;99.90;;;;;;4849147;29;38249;-81
2022/08/01 01:42:09;;;;;;;5.70;3.80;;;19.70;99.90;;;;;;4848498;29;38833;-81
2022/08/01 01:44:37;;;;;;;4.90;3.00;;;19.50;99.90;;;;;;4848299;29;38747;-80
2022/08/01 01:47:04;;;;;;;6.97;2.85;;;19.50;99.90;;;;;;4843791;29;36579;-81
2022/08/01 01:49:31;;;;;;;2.60;1.90;;;19.60;99.90;;;;;;4837001;29;39014;-79
2022/08/01 01:52:00;;;;;;;2.53;1.85;;;19.50;99.90;;;;;;4852303;29;39009;-81
2022/08/01 01:54:32;;;;;;;1.73;1.25;;;19.50;99.90;;;;;;4835596;29;39225;-80
2022/08/01 01:57:00;;;;;;;2.67;1.33;;;19.40;99.90;;;;;;4833175;29;37232;-80
2022/08/01 01:59:30;;;;;;;2.38;1.77;;;19.40;99.90;;;;;;4828749;29;38705;-80
2022/08/01 02:02:01;;;;;;;2.58;2.10;;;19.30;99.90;;;;;;4846789;29;38766;-81
2022/08/01 02:04:29;;;;;;;1.52;1.42;;;19.20;99.90;;;;;;4824984;29;46845;-79
2022/08/01 02:06:56;;;;;;;3.28;2.10;;;19.20;99.90;;;;;;4849303;29;36813;-80
2022/08/01 02:09:24;;;;;;;2.90;2.30;;;19.10;99.90;;;;;;4834412;29;38146;-80
2022/08/01 02:11:51;;;;;;;1.80;1.70;;;19.10;99.90;;;;;;4833929;29;39164;-81
2022/08/01 02:14:19;;;;;;;2.22;2.03;;;19.10;99.90;;;;;;4852640;29;36757;-81
2022/08/01 02:16:48;;;;;;;5.18;2.70;;;19.10;99.90;;;;;;4831762;29;35923;-81
2022/08/01 02:19:17;;;;;;;3.33;2.25;;;19.00;99.90;;;;;;4853028;29;37492;-80
2022/08/01 02:21:59;;;;;;;3.25;2.60;;;19.10;99.90;;;;;;4832910;29;37633;-79
2022/08/01 02:24:31;;;;;;;4.85;3.00;;;19.00;99.90;;;;;;4826630;29;39006;-80
2022/08/01 02:26:59;;;;;;;;;;;19.00;99.90;;;;;;4836134;29;35810;-80
2022/08/01 02:29:37;;;;;;;4.18;2.80;;;19.00;99.90;;;;;;4833428;29;39013;-79
2022/08/01 02:32:06;;;;;;;4.15;2.85;;;19.00;99.90;;;;;;4829724;29;38499;-79
2022/08/01 02:34:35;;;;;;;3.53;2.85;;;19.00;99.90;;;;;;4814014;29;37702;-79
2022/08/01 02:37:03;;;;;;;5.43;3.10;;;19.00;99.90;;;;;;4829454;29;37920;-81
2022/08/01 02:39:31;;;;;;;5.20;3.08;;;19.10;99.90;;;;;;4826378;29;47657;-81
2022/08/01 02:42:03;;;;;;;4.07;2.90;;;19.00;99.90;;;;;;4814719;29;37658;-80
2022/08/01 02:44:33;;;;;;;4.13;3.10;;;19.00;99.90;;;;;;4833428;29;48406;-80
2022/08/01 02:47:04;;;;;;;4.13;2.35;;;19.00;99.90;;;;;;4827609;29;35476;-80
2022/08/01 02:49:33;;;;;;;2.33;2.13;;;19.00;99.90;;;;;;4835687;29;47731;-80
2022/08/01 02:52:03;;;;;;;2.92;1.98;;;19.10;99.90;;;;;;4830471;29;38669;-81
2022/08/01 02:54:31;;;;;;;6.55;2.38;;;19.00;99.90;;;;;;4836677;29;49049;-80
2022/08/01 02:56:58;;;;;;;2.92;1.98;;;19.00;99.90;;;;;;4817612;29;36441;-80
2022/08/01 02:59:26;;;;;;;3.40;2.15;;;19.00;99.90;;;;;;4821473;29;38911;-82
2022/08/01 03:01:55;;;;;;;4.70;1.80;;;19.00;99.90;;;;;;4840428;29;38954;-82
2022/08/01 03:04:23;;;;;;;2.95;1.95;;;18.90;99.90;;;;;;4843049;29;39122;-80
2022/08/01 03:06:51;;;;;;;3.05;1.92;;;18.90;99.90;;;;;;4824975;29;36145;-80
2022/08/01 03:09:19;;;;;;;3.95;1.83;;;18.90;99.90;;;;;;4821814;29;39020;-82
2022/08/01 03:11:46;;;;;;;3.35;1.52;;;18.90;99.90;;;;;;4826951;29;37682;-79
2022/08/01 03:14:14;;;;;;;1.70;1.38;;;18.90;99.90;;;;;;4822297;29;38217;-81
2022/08/01 03:16:42;;;;;;;4.82;1.48;;;18.80;99.90;;;;;;4840512;29;37992;-81
2022/08/01 03:19:11;;;;;;;3.25;1.10;;;18.80;99.90;;;;;;4821173;29;39102;-81
2022/08/01 03:21:38;;;;;;;1.55;1.27;;;18.80;99.90;;;;;;4819787;29;39672;-81
2022/08/01 03:24:06;;;;;;;3.20;1.48;;;18.90;99.90;;;;;;4840248;29;39372;-81
2022/08/01 03:26:35;;;;;;;3.78;1.20;;;18.80;99.90;;;;;;4818260;29;36427;-81
2022/08/01 03:29:22;;;;;;;2.58;1.10;;;18.80;99.90;;;;;;4827947;29;39686;-81
2022/08/01 03:31:49;;;;;;;3.75;1.00;;;18.80;99.90;;;;;;4820383;29;47344;-81
2022/08/01 03:34:16;;;;;;;1.77;0.98;;;18.80;99.90;;;;;;4835146;29;38564;-81
2022/08/01 03:36:49;;;;;;;2.97;1.90;;;18.80;99.90;;;;;;4835747;29;37556;-81
2022/08/01 03:39:17;;;;;;;1.60;0.90;;;18.80;99.90;;;;;;4855601;29;37803;-81
2022/08/01 03:41:50;;;;;;;1.23;0.82;;;18.80;99.90;;;;;;4851759;29;39060;-81
2022/08/01 03:44:22;;;;;;;1.40;0.80;;;18.80;99.90;;;;;;4834749;29;39059;-80
2022/08/01 03:46:53;;;;;;;2.25;0.80;;;18.90;99.90;;;;;;4839019;29;36297;-81
2022/08/01 03:49:23;;;;;;;0.65;0.60;;;18.90;99.90;;;;;;4850654;29;41785;-80
2022/08/01 03:51:51;;;;;;;0.95;0.60;;;18.80;99.90;;;;;;4828526;29;38483;-81
2022/08/01 03:54:23;;;;;;;0.60;0.38;;;18.80;99.90;;;;;;4827036;29;37406;-80
2022/08/01 03:56:51;;;;;;;0.88;0.65;;;18.90;99.90;;;;;;4829199;29;38583;-81
2022/08/01 03:59:18;;;;;;;0.70;0.50;;;18.90;99.90;;;;;;4827631;29;37865;-80
2022/08/01 04:01:46;;;;;;;0.95;0.43;;;18.90;99.90;;;;;;4825680;29;39017;-80
2022/08/01 04:04:13;;;;;;;0.22;0.20;;;18.90;99.90;;;;;;4826167;29;38283;-80
2022/08/01 04:06:40;;;;;;;0.85;0.32;;;18.90;99.90;;;;;;4823264;29;36993;-82
2022/08/01 04:09:09;;;;;;;0.68;0.40;;;18.90;99.90;;;;;;4827970;29;38783;-80
2022/08/01 04:11:36;;;;;;;0.28;0.28;;;18.90;99.90;;;;;;4843431;29;39208;-80
2022/08/01 04:14:03;;;;;;;0.28;0.28;;;18.90;99.90;;;;;;4826014;29;37556;-79
2022/08/01 04:16:29;;;;;;;0.73;0.52;;;18.90;99.90;;;;;;4846638;29;37443;-80
2022/08/01 04:18:56;;;;;;;1.05;0.40;;;19.00;99.90;;;;;;4825883;29;38006;-80
2022/08/01 04:21:27;;;;;;;1.73;0.47;;;19.00;99.90;;;;;;4829548;29;37697;-80
2022/08/01 04:23:56;;;;;;;0.32;0.32;;;19.00;99.90;;;;;;4829016;29;37671;-79
2022/08/01 04:26:25;;;;;;;2.95;0.50;;;19.00;99.90;;;;;;4843546;29;37340;-81
2022/08/01 04:28:54;;;;;;;1.20;0.43;;;19.10;99.90;;;;;;4851021;29;38640;-80
2022/08/01 04:31:22;;;;;;;1.23;0.70;;;19.10;99.90;;;;;;4829395;29;38035;-81
2022/08/01 04:33:51;;;;;;;0.47;0.43;;;19.10;99.90;;;;;;4845091;29;37647;-81
2022/08/01 04:36:21;;;;;;;0.65;0.50;;;19.10;99.90;;;;;;4828967;29;37170;-80
2022/08/01 04:38:50;;;;;;;0.70;0.60;;;19.10;99.90;;;;;;4827828;29;36590;-81
2022/08/01 04:41:18;;;;;;;1.40;0.63;;;19.10;99.90;;;;;;4845993;29;39041;-81
2022/08/01 04:43:44;;;;;;;0.70;0.50;;;19.10;99.90;;;;;;4825934;29;37604;-80
2022/08/01 04:46:11;;;;;;;1.85;0.60;;;19.10;99.90;;;;;;4844737;29;36802;-80
2022/08/01 04:48:39;;;;;;;0.40;0.40;;;19.10;99.90;;;;;;4828138;29;39429;-81
2022/08/01 04:51:17;;;;;;;1.75;0.73;;;19.20;99.90;;;;;;4829815;29;37774;-80
2022/08/01 04:53:45;;;;;;;0.50;0.45;;;19.20;99.90;;;;;;4832600;29;37609;-81
2022/08/01 04:56:15;;;;;;;1.48;0.90;;;19.20;99.90;;;;;;4843863;29;36169;-81
2022/08/01 04:58:42;;;;;;;1.75;1.10;;;19.20;99.90;;;;;;4835398;29;37985;-81
2022/08/01 05:01:09;;;;;;;1.58;1.10;;;19.20;99.90;;;;;;4847319;29;39631;-80
2022/08/01 05:03:36;;;;;;;1.77;1.00;;;19.20;99.90;;;;;;4842332;29;36404;-81
2022/08/01 05:06:02;;;;;;;2.42;1.05;;;19.20;99.90;;;;;;4840742;29;37719;-80
2022/08/01 05:08:29;;;;;;;1.50;1.15;;;19.20;99.90;;;;;;4843407;29;39635;-82
2022/08/01 05:10:55;;;;;;;1.20;1.00;;;19.30;99.90;;;;;;4847466;29;39053;-81
2022/08/01 05:13:22;;;;;;;1.08;0.98;;;19.30;99.90;;;;;;4828883;29;38131;-81
2022/08/01 05:15:51;;;;;;;1.13;0.95;;;19.40;99.90;;;;;;4829298;29;37455;-82
2022/08/01 05:18:21;;;;;;;1.23;0.93;;;19.50;99.90;;;;;;4834734;29;38032;-80
2022/08/01 05:20:47;;;;;;;2.15;0.80;;;19.50;99.90;;;;;;4842389;29;38838;-80
2022/08/01 05:23:13;;;;;;;3.35;0.98;;;19.50;99.90;;;;;;4859310;29;39885;-81
2022/08/01 05:26:06;;;;;;;2.67;0.80;;;19.60;99.90;;;;;;4840908;29;37586;-81
2022/08/01 05:28:31;;;;;;;2.28;1.08;;;19.70;99.90;;;;;;4849326;29;48540;-83
2022/08/01 05:30:57;;;;;;;1.42;0.85;;;19.90;99.90;;;;;;4847081;29;37550;-83
2022/08/01 05:33:23;;;;;;;1.58;0.70;;;20.00;99.90;;;;;;4853767;29;37962;-84
2022/08/01 05:35:50;;;;;;;0.75;0.75;;;20.00;99.90;;;;;;4849697;29;36869;-81
2022/08/01 05:38:16;;;;;;;3.22;1.08;;;20.00;99.90;;;;;;4850777;29;37451;-83
2022/08/01 05:40:42;;;;;;;3.58;0.90;;;20.00;99.90;;;;;;4864446;29;37824;-79
2022/08/01 05:43:08;;;;;;;2.92;1.40;;;20.00;99.90;;;;;;4870718;29;37097;-80
2022/08/01 05:45:34;;;;;;;3.83;1.20;;;19.80;99.90;;;;;;4881935;29;37798;-80
2022/08/01 05:48:00;;;;;;;1.23;1.13;;;19.80;99.90;;;;;;4847644;29;38294;-79
2022/08/01 05:50:26;;;;;;;1.30;0.90;;;19.80;99.90;;;;;;4848385;29;36089;-83
2022/08/01 05:52:52;;;;;;;1.30;1.13;;;19.90;99.90;;;;;;4865565;29;38838;-85
2022/08/01 05:55:21;;;;;;;1.45;1.00;;;20.00;99.90;;;;;;4849478;29;36691;-84
2022/08/01 05:57:47;;;;;;;1.33;1.00;;;20.10;99.90;;;;;;4861653;29;38560;-81
2022/08/01 06:00:15;;;;;;;1.80;1.00;;;20.20;99.90;;;;;;4864173;29;37556;-80
2022/08/01 06:02:42;;;;;;;2.33;1.30;;;20.30;99.90;;;;;;4853245;29;37301;-81
2022/08/01 06:05:09;;;;;;;1.63;1.40;;;20.40;99.90;;;;;;4848340;29;36556;-83
2022/08/01 06:07:39;;;;;;;1.83;1.20;;;20.40;99.90;;;;;;4866007;29;39925;-82
2022/08/01 06:10:07;;;;;;;2.35;1.50;;;20.50;99.90;;;;;;4844577;29;38910;-81
2022/08/01 06:12:33;;;;;;;3.00;1.83;;;20.40;99.90;;;;;;4850106;29;38300;-82
2022/08/01 06:15:00;;;;;;;17.02;3.42;;;20.30;99.90;;;;;;4846477;29;37785;-78
2022/08/01 06:17:26;;;;;;;2.15;1.75;;;20.20;99.90;;;;;;4847813;29;41776;-80
2022/08/01 06:19:52;;;;;;;2.65;1.50;;;20.10;99.90;;;;;;4849251;29;38637;-80
2022/08/01 06:22:18;;;;;;;2.50;1.75;;;20.00;99.90;;;;;;4845415;29;37541;-77
2022/08/01 06:24:44;;;;;;;3.88;1.75;;;20.00;99.90;;;;;;4865828;29;37355;-80
2022/08/01 06:27:10;;;;;;;4.25;2.17;;;20.00;99.90;;;;;;4865335;29;38515;-78
2022/08/01 06:29:36;;;;;;;5.88;2.28;;;19.90;99.90;;;;;;4867120;29;38982;-78
2022/08/01 06:32:03;;;;;;;6.28;2.17;;;19.90;99.90;;;;;;4849984;29;39135;-78
2022/08/01 06:34:30;;;;;;;4.57;2.05;;;19.90;99.90;;;;;;4850587;29;36204;-81
2022/08/01 06:36:56;;;;;;;3.65;2.00;;;19.80;99.90;;;;;;4865996;29;39516;-80
2022/08/01 06:39:22;;;;;;;3.42;1.95;;;19.90;99.90;;;;;;4850157;29;39024;-79
2022/08/01 06:41:48;;;;;;;2.40;1.70;;;19.90;99.90;;;;;;4848023;29;38852;-79
2022/08/01 06:44:14;;;;;;;3.95;2.17;;;19.90;99.90;;;;;;4849316;29;36219;-79
2022/08/01 06:46:41;;;;;;;4.22;2.97;;;19.80;99.90;;;;;;4867140;29;37769;-79
2022/08/01 06:49:07;;;;;;;3.90;2.65;;;19.80;99.90;;;;;;4867124;29;39823;-79
2022/08/01 06:51:33;;;;;;;6.72;2.20;;;19.80;99.90;;;;;;4867187;29;38469;-80
2022/08/01 06:53:59;;;;;;;3.03;2.40;;;19.70;99.90;;;;;;4847588;29;37835;-79
2022/08/01 06:56:25;;;;;;;6.75;2.40;;;19.80;99.90;;;;;;4862269;29;39121;-78
2022/08/01 06:58:51;;;;;;;3.35;2.60;;;19.80;99.90;;;;;;4850648;29;39074;-79
2022/08/01 07:01:17;;;;;;;3.22;2.60;;;19.80;99.90;;;;;;4869900;29;39249;-79
2022/08/01 07:03:43;;;;;;;2.60;2.40;;;19.80;99.90;;;;;;4853879;29;38281;-81
2022/08/01 07:06:10;;;;;;;3.85;2.38;;;19.90;99.90;;;;;;4866467;29;39877;-79
2022/08/01 07:08:36;;;;;;;4.35;2.33;;;19.80;99.90;;;;;;4849367;29;37857;-79
2022/08/01 07:11:03;;;;;;;2.97;1.77;;;19.80;99.90;;;;;;4868211;29;37546;-79
2022/08/01 07:13:30;;;;;;;2.97;1.98;;;19.80;99.90;;;;;;4850625;29;38815;-79
2022/08/01 07:15:59;;;;;;;4.05;1.83;;;19.90;99.90;;;;;;4849020;29;39408;-79
2022/08/01 07:18:25;;;;;;;4.28;2.00;;;19.90;99.90;;;;;;4863652;29;38281;-80
2022/08/01 07:20:52;;;;;;;4.13;1.73;;;20.00;99.90;;;;;;4866147;29;36855;-78
2022/08/01 07:23:18;;;;;;;3.90;2.15;;;20.00;99.90;;;;;;4852268;29;37302;-79
2022/08/01 07:25:44;;;;;;;5.72;2.20;;;20.00;99.90;;;;;;4846955;29;39920;-79
2022/08/01 07:28:10;;;;;;;3.97;2.05;;;20.10;99.90;;;;;;4853562;29;39184;-79
2022/08/01 07:30:36;;;;;;;2.65;1.73;;;20.10;99.90;;;;;;4849994;29;37611;-82
2022/08/01 07:33:03;;;;;;;4.55;2.30;;;20.20;99.90;;;;;;4871349;29;37211;-80
2022/08/01 07:35:29;;;;;;;3.50;1.83;;;20.30;99.90;;;;;;4870975;29;38318;-80
2022/08/01 07:37:55;;;;;;;2.80;1.90;;;20.30;99.90;;;;;;4854900;29;38306;-81
2022/08/01 07:40:21;;;;;;;4.00;2.30;;;20.40;99.90;;;;;;4849377;29;37397;-79
2022/08/01 07:42:48;;;;;;;4.00;2.10;;;20.50;99.90;;;;;;4857070;29;20085;-82
2022/08/01 07:45:15;;;;;;;6.35;2.58;;;20.60;99.90;;;;;;4851680;29;39173;-81
2022/08/01 07:47:41;;;;;;;3.97;2.30;;;20.60;99.90;;;;;;4866884;29;39102;-81
2022/08/01 07:50:08;;;;;;;4.90;2.45;;;20.60;99.90;;;;;;4847011;29;37758;-81
2022/08/01 07:52:34;;;;;;;5.57;2.47;;;20.50;99.90;;;;;;4850914;29;35137;-81
2022/08/01 07:55:00;;;;;;;6.45;2.92;;;20.50;99.90;;;;;;4851305;29;37994;-82
2022/08/01 07:57:26;;;;;;;3.63;2.38;;;20.50;99.90;;;;;;4865613;29;39631;-79
2022/08/01 07:59:52;;;;;;;5.47;2.85;;;20.70;99.90;;;;;;4843060;29;38553;-77
2022/08/01 08:02:19;;;;;;;4.63;2.47;;;21.00;99.90;;;;;;4846177;29;37565;-79
2022/08/01 08:04:45;;;;;;;4.97;2.75;;;21.30;99.90;;;;;;4844915;29;39596;-83
2022/08/01 08:07:11;;;;;;;4.65;2.55;;;21.40;99.90;;;;;;4848013;29;36808;-80
2022/08/01 08:09:37;;;;;;;10.77;3.08;;;21.30;99.90;;;;;;4848968;29;39114;-80
2022/08/01 08:12:03;;;;;;;9.48;2.92;;;21.30;99.90;;;;;;4851475;29;37914;-80
2022/08/01 08:14:30;;;;;;;13.75;3.30;;;21.10;99.90;;;;;;4867616;29;39374;-78
2022/08/01 08:16:56;;;;;;;9.10;3.55;;;21.00;99.90;;;;;;4864427;29;38840;-79
2022/08/01 08:19:22;;;;;;;8.98;3.45;;;20.80;99.90;;;;;;4849595;29;37812;-79
2022/08/01 08:21:48;;;;;;;10.23;3.35;;;20.90;99.90;;;;;;4845959;29;36035;-79
2022/08/01 08:24:20;;;;;;;9.93;3.20;;;20.70;99.90;;;;;;4843552;29;38049;-83
2022/08/01 08:26:51;;;;;;;;;;;20.70;99.90;;;;;;4850412;29;38472;-84
2022/08/01 08:29:17;;;;;;;12.68;3.65;;;20.60;99.90;;;;;;4852274;29;37192;-85
2022/08/01 08:31:43;;;;;;;11.57;3.50;;;20.80;99.90;;;;;;4851237;29;37353;-81
2022/08/01 08:34:10;;;;;;;12.32;3.30;;;21.10;99.90;;;;;;4846808;29;38672;-83
2022/08/01 08:36:39;;;;;;;13.30;3.45;;;21.70;99.90;;;;;;4853214;29;37692;-79
2022/08/01 08:39:05;;;;;;;8.10;3.35;;;22.10;99.90;;;;;;4858695;29;37602;-82
2022/08/01 08:41:35;;;;;;;13.15;3.22;;;22.30;99.90;;;;;;4870164;29;35861;-82
2022/08/01 08:44:03;;;;;;;10.40;3.20;;;22.30;99.90;;;;;;4867597;29;38367;-83
2022/08/01 08:46:32;;;;;;;12.35;3.63;;;22.10;99.90;;;;;;4862031;29;48485;-82
2022/08/01 08:49:00;;;;;;;11.88;3.08;;;21.80;99.90;;;;;;4866658;29;38706;-82
2022/08/01 08:51:29;;;;;;;9.80;2.85;;;21.50;99.90;;;;;;4864210;29;37964;-85
2022/08/01 08:53:57;;;;;;;9.93;2.65;;;21.30;99.90;;;;;;4864364;29;38883;-83
2022/08/01 08:56:29;;;;;;;9.38;3.13;;;21.30;99.90;;;;;;4848541;29;39018;-83
2022/08/01 08:58:56;;;;;;;8.63;2.88;;;21.40;99.90;;;;;;4864439;29;38322;-82
2022/08/01 09:01:22;;;;;;;8.10;3.10;;;21.50;99.90;;;;;;4853170;29;37842;-82
2022/08/01 09:03:48;;;;;;;8.85;3.13;;;21.70;99.90;;;;;;4849153;29;38426;-83
2022/08/01 09:06:14;;;;;;;5.30;2.30;;;21.70;99.90;;;;;;4852268;29;40528;-82
2022/08/01 09:08:40;;;;;;;8.73;3.10;;;21.60;99.90;;;;;;4866089;29;38211;-80
2022/08/01 09:11:06;;;;;;;10.68;3.25;;;21.50;99.90;;;;;;4847335;29;36227;-81
2022/08/01 09:13:32;;;;;;;5.75;2.28;;;21.40;99.90;;;;;;4868494;29;38960;-80
2022/08/01 09:15:58;;;;;;;9.05;2.80;;;21.40;99.90;;;;;;4865042;29;38516;-79
2022/08/01 09:18:35;;;;;;;9.98;2.45;;;21.50;99.90;;;;;;4848901;29;37709;-81
2022/08/01 09:21:07;;;;;;;6.75;2.42;;;21.60;99.90;;;;;;4864567;29;37787;-79
2022/08/01 09:23:35;;;;;;;7.45;1.92;;;21.70;99.90;;;;;;4846745;29;38468;-80
2022/08/01 09:26:01;;;;;;;7.00;1.90;;;21.80;99.90;;;;;;4850806;29;41116;-80
2022/08/01 09:28:29;;;;;;;4.65;1.67;;;22.10;99.90;;;;;;4848242;29;47259;-79
2022/08/01 09:30:58;;;;;;;4.85;1.50;;;22.30;99.90;;;;;;4868708;29;39247;-80
2022/08/01 09:33:24;;;;;;;4.88;1.75;;;22.30;99.90;;;;;;4848557;29;40707;-79
2022/08/01 09:35:55;;;;;;;4.50;1.67;;;22.50;99.90;;;;;;4849330;29;37537;-83
2022/08/01 09:38:23;;;;;;;9.03;1.93;;;22.70;99.90;;;;;;4852288;29;38113;-81
2022/08/01 09:40:51;;;;;;;4.65;1.77;;;22.80;99.90;;;;;;4843796;29;37792;-81
2022/08/01 09:43:19;;;;;;;6.82;1.88;;;23.00;99.90;;;;;;4866818;29;39976;-79
2022/08/01 09:45:46;;;;;;;4.32;1.58;;;23.00;99.90;;;;;;4854704;29;37717;-81
2022/08/01 09:48:12;;;;;;;6.22;1.63;;;22.90;99.90;;;;;;4846809;29;37405;-78
2022/08/01 09:50:43;;;;;;;6.93;1.52;;;22.70;99.90;;;;;;4867278;29;36713;-79
2022/08/01 09:53:10;;;;;;;3.92;1.13;;;22.30;99.90;;;;;;4848964;29;36687;-80
2022/08/01 09:55:37;;;;;;;4.28;1.67;;;22.20;99.90;;;;;;4865353;29;38639;-79
2022/08/01 09:58:04;;;;;;;7.35;1.70;;;22.50;99.90;;;;;;4850115;29;37735;-80
2022/08/01 10:00:32;;;;;;;3.67;1.35;;;22.70;99.90;;;;;;4850008;29;35921;-80
2022/08/01 10:02:59;;;;;;;6.88;1.77;;;22.90;99.90;;;;;;4852778;29;37873;-83
2022/08/01 10:05:32;;;;;;;6.68;1.80;;;23.00;99.90;;;;;;4847804;29;38009;-82
2022/08/01 10:08:04;;;;;;;3.13;1.30;;;23.20;99.90;;;;;;4851710;29;37584;-82
2022/08/01 10:10:30;;;;;;;4.55;1.80;;;23.50;99.90;;;;;;4850139;29;47148;-81
2022/08/01 10:12:58;;;;;;;6.28;1.63;;;23.70;99.90;;;;;;4868042;29;38889;-82
2022/08/01 10:15:26;;;;;;;5.32;1.75;;;23.90;99.90;;;;;;4852685;29;39346;-79
2022/08/01 10:17:57;;;;;;;5.47;1.38;;;24.20;99.90;;;;;;4867080;29;38398;-80
2022/08/01 10:20:27;;;;;;;5.38;1.30;;;24.30;99.90;;;;;;4864984;29;37104;-80
2022/08/01 10:22:54;;;;;;;5.93;1.75;;;24.10;99.90;;;;;;4850317;29;39592;-79
2022/08/01 10:25:22;;;;;;;6.70;2.00;;;24.00;99.90;;;;;;4866957;29;40020;-77
2022/08/01 10:27:56;;;;;;;6.97;1.65;;;23.90;99.90;;;;;;4851806;29;37284;-79
2022/08/01 10:30:23;;;;;;;2.38;1.42;;;23.80;99.90;;;;;;4852808;29;36239;-82
2022/08/01 10:32:52;;;;;;;5.45;1.60;;;23.70;99.90;;;;;;4873672;29;37793;-79
2022/08/01 10:35:19;;;;;;;6.28;1.60;;;23.70;99.90;;;;;;4851254;29;39099;-81
2022/08/01 10:37:46;;;;;;;6.00;1.67;;;23.80;99.90;;;;;;4853138;29;37473;-80
2022/08/01 10:40:14;;;;;;;3.58;1.23;;;23.80;99.90;;;;;;4871222;29;38044;-80
2022/08/01 10:42:42;;;;;;;6.55;1.70;;;23.70;99.90;;;;;;4867556;29;39703;-80
2022/08/01 10:45:14;;;;;;;6.75;1.63;;;23.70;99.90;;;;;;4863613;29;39094;-80
2022/08/01 10:47:58;;;;;;;3.80;1.38;;;24.10;99.90;;;;;;4849732;29;37317;-79
2022/08/01 10:50:31;;;;;;;4.97;1.67;;;24.30;99.90;;;;;;4871304;29;36252;-79
2022/08/01 10:53:14;;;;;;;5.55;1.70;;;24.40;99.90;;;;;;4868003;29;38935;-77
2022/08/01 10:55:52;;;;;;;3.33;1.38;;;24.60;99.90;;;;;;4846871;29;47318;-78
2022/08/01 10:58:25;;;;;;;2.97;1.15;;;24.80;99.90;;;;;;4870360;29;38627;-78
2022/08/01 11:01:18;;;;;;;3.53;1.00;;;24.80;99.90;;;;;;4852672;29;36543;-79
2022/08/01 11:04:00;;;;;;;3.03;1.08;;;24.90;99.90;;;;;;4856448;29;47346;-77
2022/08/01 11:06:41;;;;;;;3.67;1.33;;;25.00;99.90;;;;;;4848716;29;38255;-77
2022/08/01 11:09:13;;;;;;;3.45;1.10;;;25.30;99.90;;;;;;4865846;29;37231;-77
2022/08/01 11:11:58;;;;;;;;;;;25.60;99.90;;;;;;4869243;29;36859;-77
2022/08/01 11:14:24;;;;;;;3.60;1.00;;;26.00;99.90;;;;;;4873518;29;39592;-79
2022/08/01 11:16:50;;;;;;;5.80;1.20;;;26.30;99.90;;;;;;4855579;29;38852;-78
2022/08/01 11:19:16;;;;;;;4.55;1.30;;;26.40;99.90;;;;;;4869964;29;39094;-77
2022/08/01 11:21:57;;;;;;;4.85;1.35;;;26.40;99.90;;;;;;4852445;29;37559;-79
2022/08/01 11:24:44;;;;;;;5.90;1.20;;;26.30;99.90;;;;;;4849729;29;38918;-79
2022/08/01 11:27:31;;;;;;;4.00;1.05;;;25.70;99.90;;;;;;4858117;29;38759;-79
2022/08/01 11:30:09;;;;;;;4.25;1.35;;;25.50;99.90;;;;;;4846381;29;37694;-78
2022/08/01 11:33:06;;;;;;;2.10;1.00;;;25.40;99.90;;;;;;4865578;29;47384;-79
2022/08/01 11:35:34;;;;;;;3.95;1.10;;;25.20;99.90;;;;;;4835721;29;47197;-80
2022/08/01 11:38:23;;;;;;;7.30;1.88;;;25.00;99.90;;;;;;4850624;29;39192;-79
2022/08/01 11:41:21;;;;;;;4.00;1.40;;;24.90;99.90;;;;;;4851216;29;47295;-79
2022/08/01 11:44:13;;;;;;;4.82;1.90;;;24.70;99.90;;;;;;4864819;29;47815;-80
2022/08/01 11:46:51;;;;;;;5.70;1.38;;;24.70;99.90;;;;;;4872632;29;46881;-85
2022/08/01 11:49:39;;;;;;;5.80;1.45;;;25.30;99.90;;;;;;4849895;29;37901;-78
2022/08/01 11:52:33;;;;;;;4.63;1.42;;;25.80;99.90;;;;;;4846408;29;37356;-76
2022/08/01 11:55:06;;;;;;;5.50;1.35;;;26.30;99.90;;;;;;4840366;29;36183;-79
2022/08/01 11:57:37;;;;;;;3.92;1.05;;;26.70;99.90;;;;;;4868392;29;46759;-79
2022/08/01 12:00:18;;;;;;;6.35;1.58;;;26.90;99.90;;;;;;4850075;29;37643;-79
2022/08/01 12:02:46;;;;;;;7.35;1.38;;;27.30;99.90;;;;;;4869094;29;48856;-78
2022/08/01 12:05:16;;;;;;;3.33;1.08;;;27.20;99.90;;;;;;4851129;29;36458;-78
2022/08/01 12:07:44;;;;;;;5.40;1.80;;;27.40;99.90;;;;;;4861301;29;39028;-77
2022/08/01 12:10:15;;;;;;;5.03;1.02;;;27.00;99.90;;;;;;4865433;29;39079;-78
2022/08/01 12:12:47;;;;;;;2.85;1.20;;;26.30;99.90;;;;;;4849319;29;37750;-80
2022/08/01 12:15:13;;;;;;;3.55;1.33;;;25.70;99.90;;;;;;4844961;29;37456;-79
2022/08/01 12:17:48;;;;;;;2.97;1.33;;;26.00;99.90;;;;;;4851688;29;39461;-78
2022/08/01 12:20:21;;;;;;;2.15;0.90;;;26.20;99.90;;;;;;4848162;29;39402;-81
2022/08/01 12:22:47;;;;;;;4.32;1.30;;;26.40;99.90;;;;;;4850047;29;39805;-82
2022/08/01 12:25:16;;;;;;;4.00;1.00;;;26.50;99.90;;;;;;4850932;29;38618;-80
2022/08/01 12:27:44;;;;;;;2.70;0.88;;;26.20;99.90;;;;;;4849417;29;39059;-80
2022/08/01 12:30:24;;;;;;;4.78;1.10;;;26.10;99.90;;;;;;4846301;29;37969;-79
2022/08/01 12:32:52;;;;;;;3.08;0.80;;;26.20;99.90;;;;;;4851471;29;37795;-78
2022/08/01 12:35:27;;;;;;;3.22;1.20;;;26.70;99.90;;;;;;4866653;29;37521;-80
2022/08/01 12:37:56;;;;;;;3.67;0.90;;;26.80;99.90;;;;;;4850663;29;37480;-79
2022/08/01 12:40:30;;;;;;;2.70;0.88;;;27.00;99.90;;;;;;4853526;29;39241;-80
2022/08/01 12:43:05;;;;;;;3.28;0.80;;;27.10;99.90;;;;;;4850435;29;38876;-79
2022/08/01 12:45:35;;;;;;;2.13;0.93;;;27.20;99.90;;;;;;4854690;29;47554;-78
2022/08/01 12:48:07;;;;;;;3.38;1.20;;;27.40;99.90;;;;;;4854683;29;38816;-80
2022/08/01 12:50:33;;;;;;;;;;;27.30;99.90;;;;;;4850673;29;39117;-78
2022/08/01 12:53:00;;;;;;;2.08;0.73;;;27.30;99.90;;;;;;4867445;29;39218;-79
2022/08/01 12:55:27;;;;;;;5.47;1.10;;;27.50;99.90;;;;;;4849126;29;35667;-81
2022/08/01 12:58:08;;;;;;;3.30;0.95;;;27.60;99.90;;;;;;4866324;29;39146;-79
2022/08/01 13:00:34;;;;;;;3.13;1.15;;;27.20;99.90;;;;;;4852720;29;47322;-79